Time;durP1;ratioP1;P1;durP2;ratioP2;P2;SDS_P1;SDS_P2;PMS_P1;PMS_P2;Temp;Humidity;BMP_temperature;BMP_pressure;BME280_temperature;BME280_humidity;BME280_pressure;Samples;Min_cycle;Max_cycle;Signal;HPM_P1;HPM_P2
2020/12/26 00:01:10;;;;;;;;;6.25;4.50;;;;;;;;5050085;28;11526;-76
2020/12/26 00:03:36;;;;;;;;;3.50;3.50;;;;;;;;5049783;28;8853;-76
2020/12/26 00:06:03;;;;;;;;;3.00;3.00;;;;;;;;5050099;28;11525;-76
2020/12/26 00:08:29;;;;;;;;;3.00;3.00;;;;;;;;5049555;28;8833;-74
2020/12/26 00:10:56;;;;;;;;;1.25;1.25;;;;;;;;5049961;28;11514;-77
2020/12/26 00:13:22;;;;;;;;;3.00;3.00;;;;;;;;5049619;28;11668;-75
2020/12/26 00:15:48;;;;;;;;;4.00;2.00;;;;;;;;5049822;28;11577;-75
2020/12/26 00:18:13;;;;;;;;;2.00;2.00;;;;;;;;5049849;28;8852;-75
2020/12/26 00:20:39;;;;;;;;;2.00;2.00;;;;;;;;5049913;28;8825;-76
2020/12/26 00:23:05;;;;;;;;;3.50;2.25;;;;;;;;5050107;28;8850;-76
2020/12/26 00:25:31;;;;;;;;;1.00;1.00;;;;;;;;5049540;28;8960;-75
2020/12/26 00:27:58;;;;;;;;;1.00;1.00;;;;;;;;5049749;28;8838;-75
2020/12/26 00:30:24;;;;;;;;;1.50;1.50;;;;;;;;5049356;28;11522;-75
2020/12/26 00:32:50;;;;;;;;;3.00;3.00;;;;;;;;5049803;28;11498;-76
2020/12/26 00:35:16;;;;;;;;;3.75;1.00;;;;;;;;5049424;28;8830;-74
2020/12/26 00:37:42;;;;;;;;;2.00;2.00;;;;;;;;5049635;28;8880;-74
2020/12/26 00:40:08;;;;;;;;;1.00;1.00;;;;;;;;5049915;28;8818;-75
2020/12/26 00:42:34;;;;;;;;;2.00;1.00;;;;;;;;5049528;28;8849;-73
2020/12/26 00:45:01;;;;;;;;;1.50;1.50;;;;;;;;5049604;28;11524;-75
2020/12/26 00:47:27;;;;;;;;;1.75;1.75;;;;;;;;5049694;28;8845;-76
2020/12/26 00:49:53;;;;;;;;;3.00;1.00;;;;;;;;5050700;28;12223;-75
2020/12/26 00:52:19;;;;;;;;;1.00;1.00;;;;;;;;5053539;28;8833;-75
2020/12/26 00:54:45;;;;;;;;;2.50;1.00;;;;;;;;5053757;28;8853;-75
2020/12/26 00:57:10;;;;;;;;;1.00;1.00;;;;;;;;5049301;28;8867;-76
2020/12/26 00:59:36;;;;;;;;;0.00;0.00;;;;;;;;5053765;28;8830;-76
2020/12/26 01:02:03;;;;;;;;;0.00;0.00;;;;;;;;5053498;28;8860;-76
2020/12/26 01:04:29;;;;;;;;;1.00;0.25;;;;;;;;5053243;28;8845;-75
2020/12/26 01:06:55;;;;;;;;;0.00;0.00;;;;;;;;5053269;28;11586;-75
2020/12/26 01:09:21;;;;;;;;;1.00;0.00;;;;;;;;5053161;28;8849;-75
2020/12/26 01:11:48;;;;;;;;;1.00;1.00;;;;;;;;5053141;28;11496;-75
2020/12/26 01:14:14;;;;;;;;;1.00;1.00;;;;;;;;5053191;28;12191;-75
2020/12/26 01:16:40;;;;;;;;;0.25;0.25;;;;;;;;5053254;28;11561;-76
2020/12/26 01:19:07;;;;;;;;;1.00;0.00;;;;;;;;5053217;28;8841;-76
2020/12/26 01:21:32;;;;;;;;;0.50;0.25;;;;;;;;5052951;28;8946;-76
2020/12/26 01:23:58;;;;;;;;;0.00;0.00;;;;;;;;5052985;28;12216;-77
2020/12/26 01:26:24;;;;;;;;;2.25;2.00;;;;;;;;5053039;28;8853;-77
2020/12/26 01:28:50;;;;;;;;;0.50;0.50;;;;;;;;5053088;28;11537;-77
2020/12/26 01:31:16;;;;;;;;;0.00;0.00;;;;;;;;5052803;28;8860;-76
2020/12/26 01:33:43;;;;;;;;;0.00;0.00;;;;;;;;5053172;28;9561;-76
2020/12/26 01:36:11;;;;;;;;;0.50;0.50;;;;;;;;5053157;28;8837;-77
2020/12/26 01:38:37;;;;;;;;;0.00;0.00;;;;;;;;5052930;28;11458;-77
2020/12/26 01:41:03;;;;;;;;;0.00;0.00;;;;;;;;5052962;28;11514;-76
2020/12/26 01:43:29;;;;;;;;;0.00;0.00;;;;;;;;5052670;28;11492;-75
2020/12/26 01:45:55;;;;;;;;;0.00;0.00;;;;;;;;5052925;28;9622;-75
2020/12/26 01:48:21;;;;;;;;;0.00;0.00;;;;;;;;5052624;28;8845;-75
2020/12/26 01:50:51;;;;;;;;;0.00;0.00;;;;;;;;5052779;28;11500;-75
2020/12/26 01:53:19;;;;;;;;;0.00;0.00;;;;;;;;5052455;28;11516;-75
2020/12/26 01:55:45;;;;;;;;;0.00;0.00;;;;;;;;5052387;28;11551;-73
2020/12/26 01:58:13;;;;;;;;;0.00;0.00;;;;;;;;5052695;28;11572;-76
2020/12/26 02:00:39;;;;;;;;;0.00;0.00;;;;;;;;5051944;28;11467;-76
2020/12/26 02:03:05;;;;;;;;;0.00;0.00;;;;;;;;5052548;28;11497;-73
2020/12/26 02:05:31;;;;;;;;;0.00;0.00;;;;;;;;5052035;28;11652;-75
2020/12/26 02:07:57;;;;;;;;;0.50;0.00;;;;;;;;5052232;28;12317;-75
2020/12/26 02:10:24;;;;;;;;;0.00;0.00;;;;;;;;5051912;28;11484;-74
2020/12/26 02:12:50;;;;;;;;;0.00;0.00;;;;;;;;5052530;28;11593;-75
2020/12/26 02:15:16;;;;;;;;;0.00;0.00;;;;;;;;5052345;28;12278;-78
2020/12/26 02:17:42;;;;;;;;;0.00;0.00;;;;;;;;5053028;28;8862;-76
2020/12/26 02:20:08;;;;;;;;;0.00;0.00;;;;;;;;5052789;28;8841;-76
2020/12/26 02:22:34;;;;;;;;;0.00;0.00;;;;;;;;5052630;28;11563;-75
2020/12/26 02:25:01;;;;;;;;;0.00;0.00;;;;;;;;5052838;28;11494;-76
2020/12/26 02:27:27;;;;;;;;;0.00;0.00;;;;;;;;5052065;28;11575;-75
2020/12/26 02:29:53;;;;;;;;;0.00;0.00;;;;;;;;5051908;28;11519;-75
2020/12/26 02:32:19;;;;;;;;;0.00;0.00;;;;;;;;5052035;28;8853;-75
2020/12/26 02:34:45;;;;;;;;;0.00;0.00;;;;;;;;5051966;28;8891;-75
2020/12/26 02:37:11;;;;;;;;;0.00;0.00;;;;;;;;5051488;28;8826;-75
2020/12/26 02:39:37;;;;;;;;;0.00;0.00;;;;;;;;5052205;28;8829;-77
2020/12/26 02:42:04;;;;;;;;;0.00;0.00;;;;;;;;5051683;28;8845;-76
2020/12/26 02:44:30;;;;;;;;;0.00;0.00;;;;;;;;5051496;28;8860;-74
2020/12/26 02:46:56;;;;;;;;;0.00;0.00;;;;;;;;5051459;28;11501;-74
2020/12/26 02:49:21;;;;;;;;;0.00;0.00;;;;;;;;5051178;28;8849;-74
2020/12/26 02:51:47;;;;;;;;;0.00;0.00;;;;;;;;5051510;28;9588;-76
2020/12/26 02:54:14;;;;;;;;;0.00;0.00;;;;;;;;5051314;28;8989;-75
2020/12/26 02:56:40;;;;;;;;;0.00;0.00;;;;;;;;5047677;28;8964;-75
2020/12/26 02:59:07;;;;;;;;;0.00;0.00;;;;;;;;5051381;28;11476;-75
2020/12/26 03:01:33;;;;;;;;;0.00;0.00;;;;;;;;5051269;28;8868;-75
2020/12/26 03:04:00;;;;;;;;;0.00;0.00;;;;;;;;5050926;28;11482;-75
2020/12/26 03:06:26;;;;;;;;;0.00;0.00;;;;;;;;5051028;28;11487;-77
2020/12/26 03:08:51;;;;;;;;;0.00;0.00;;;;;;;;5051049;28;12244;-77
2020/12/26 03:11:17;;;;;;;;;1.00;0.00;;;;;;;;5050775;28;8841;-74
2020/12/26 03:13:43;;;;;;;;;0.00;0.00;;;;;;;;5050302;28;8861;-74
2020/12/26 03:16:10;;;;;;;;;0.00;0.00;;;;;;;;5051071;28;8833;-75
2020/12/26 03:18:36;;;;;;;;;0.00;0.00;;;;;;;;5050982;28;8825;-75
2020/12/26 03:21:02;;;;;;;;;0.00;0.00;;;;;;;;5051101;28;11493;-75
2020/12/26 03:23:28;;;;;;;;;0.00;0.00;;;;;;;;5050508;28;8837;-75
2020/12/26 03:25:54;;;;;;;;;0.00;0.00;;;;;;;;5050834;28;8902;-74
2020/12/26 03:28:20;;;;;;;;;0.00;0.00;;;;;;;;5050663;28;8834;-75
2020/12/26 03:30:46;;;;;;;;;0.50;0.00;;;;;;;;5050622;28;8926;-76
2020/12/26 03:33:13;;;;;;;;;0.00;0.00;;;;;;;;5050553;28;8923;-77
2020/12/26 03:35:39;;;;;;;;;0.00;0.00;;;;;;;;5050906;28;8853;-76
2020/12/26 03:38:05;;;;;;;;;0.00;0.00;;;;;;;;5050566;28;11570;-76
2020/12/26 03:40:31;;;;;;;;;0.00;0.00;;;;;;;;5050602;28;9014;-75
2020/12/26 03:42:56;;;;;;;;;0.00;0.00;;;;;;;;5050784;28;9587;-75
2020/12/26 03:45:22;;;;;;;;;0.00;0.00;;;;;;;;5050159;28;8853;-76
2020/12/26 03:47:48;;;;;;;;;0.00;0.00;;;;;;;;5050643;28;8834;-75
2020/12/26 03:50:15;;;;;;;;;0.00;0.00;;;;;;;;5050327;28;8838;-76
2020/12/26 03:52:41;;;;;;;;;0.00;0.00;;;;;;;;5050423;28;8837;-76
2020/12/26 03:55:07;;;;;;;;;0.00;0.00;;;;;;;;5050277;28;11487;-76
2020/12/26 03:57:33;;;;;;;;;0.75;0.00;;;;;;;;5050087;28;8862;-76
2020/12/26 03:59:59;;;;;;;;;0.00;0.00;;;;;;;;5050344;28;8837;-76
2020/12/26 04:02:25;;;;;;;;;0.00;0.00;;;;;;;;5053299;28;9510;-76
2020/12/26 04:04:51;;;;;;;;;0.00;0.00;;;;;;;;5050635;28;9591;-76
2020/12/26 04:07:18;;;;;;;;;0.00;0.00;;;;;;;;5051523;28;8838;-77
2020/12/26 04:09:44;;;;;;;;;1.00;0.00;;;;;;;;5050406;28;8934;-75
2020/12/26 04:12:10;;;;;;;;;0.00;0.00;;;;;;;;5050164;28;12297;-75
2020/12/26 04:14:36;;;;;;;;;0.00;0.00;;;;;;;;5050134;28;9522;-74
2020/12/26 04:17:01;;;;;;;;;0.00;0.00;;;;;;;;5049886;28;8834;-76
2020/12/26 04:19:27;;;;;;;;;0.00;0.00;;;;;;;;5049944;28;8841;-75
2020/12/26 04:21:53;;;;;;;;;0.00;0.00;;;;;;;;5049933;28;8837;-75
2020/12/26 04:24:20;;;;;;;;;0.00;0.00;;;;;;;;5049572;28;11517;-75
2020/12/26 04:26:46;;;;;;;;;0.00;0.00;;;;;;;;5049835;28;11477;-75
2020/12/26 04:29:13;;;;;;;;;0.00;0.00;;;;;;;;5049079;28;11490;-75
2020/12/26 04:31:39;;;;;;;;;0.00;0.00;;;;;;;;5050228;28;8845;-75
2020/12/26 04:34:05;;;;;;;;;0.00;0.00;;;;;;;;5049755;28;11496;-75
2020/12/26 04:36:31;;;;;;;;;0.00;0.00;;;;;;;;5049679;28;9449;-75
2020/12/26 04:38:57;;;;;;;;;0.00;0.00;;;;;;;;5049839;28;8837;-75
2020/12/26 04:41:24;;;;;;;;;0.00;0.00;;;;;;;;5049584;28;11474;-75
2020/12/26 04:43:50;;;;;;;;;0.00;0.00;;;;;;;;5049795;28;11632;-75
2020/12/26 04:46:18;;;;;;;;;0.00;0.00;;;;;;;;5049284;28;11477;-76
2020/12/26 04:48:50;;;;;;;;;0.00;0.00;;;;;;;;5049780;28;9601;-75
2020/12/26 04:51:17;;;;;;;;;0.00;0.00;;;;;;;;5049298;28;11572;-76
2020/12/26 04:53:44;;;;;;;;;0.00;0.00;;;;;;;;5049623;28;11661;-75
2020/12/26 04:56:10;;;;;;;;;0.00;0.00;;;;;;;;5045788;28;11473;-76
2020/12/26 04:58:39;;;;;;;;;0.00;0.00;;;;;;;;5049457;28;11477;-75
2020/12/26 05:01:05;;;;;;;;;0.00;0.00;;;;;;;;5049567;28;8829;-74
2020/12/26 05:03:33;;;;;;;;;0.00;0.00;;;;;;;;5049087;28;11543;-75
2020/12/26 05:06:02;;;;;;;;;0.00;0.00;;;;;;;;5049403;28;11492;-75
2020/12/26 05:08:28;;;;;;;;;0.00;0.00;;;;;;;;5049077;28;11563;-75
2020/12/26 05:10:55;;;;;;;;;0.00;0.00;;;;;;;;5049097;28;12221;-76
2020/12/26 05:13:21;;;;;;;;;0.00;0.00;;;;;;;;5049269;28;8872;-75
2020/12/26 05:15:48;;;;;;;;;0.00;0.00;;;;;;;;5049056;28;11525;-75
2020/12/26 05:18:14;;;;;;;;;0.00;0.00;;;;;;;;5049332;28;8926;-76
2020/12/26 05:20:40;;;;;;;;;0.00;0.00;;;;;;;;5049504;28;11489;-77
2020/12/26 05:23:07;;;;;;;;;0.00;0.00;;;;;;;;5049373;28;11478;-77
2020/12/26 05:25:33;;;;;;;;;0.00;0.00;;;;;;;;5049241;28;11447;-76
2020/12/26 05:28:07;;;;;;;;;0.00;0.00;;;;;;;;5049221;28;11542;-76
2020/12/26 05:30:35;;;;;;;;;0.00;0.00;;;;;;;;5048735;28;11494;-74
2020/12/26 05:33:04;;;;;;;;;0.00;0.00;;;;;;;;5049455;28;11514;-75
2020/12/26 05:35:34;;;;;;;;;0.00;0.00;;;;;;;;5049490;28;11559;-75
2020/12/26 05:38:10;;;;;;;;;0.00;0.00;;;;;;;;5053011;28;12185;-76
2020/12/26 05:40:40;;;;;;;;;0.00;0.00;;;;;;;;5052898;28;11473;-76
2020/12/26 05:43:07;;;;;;;;;0.00;0.00;;;;;;;;5052823;28;11489;-75
2020/12/26 05:45:38;;;;;;;;;0.00;0.00;;;;;;;;5052581;28;11485;-75
2020/12/26 10:37:37;;;;;;;;;2.00;2.00;;;;;;;;5041260;27;13374;-78
2020/12/26 10:40:03;;;;;;;;;0.00;0.00;;;;;;;;5067404;28;8821;-76
2020/12/26 10:42:29;;;;;;;;;0.00;0.00;;;;;;;;5066686;28;11525;-77
2020/12/26 10:44:55;;;;;;;;;1.00;0.00;;;;;;;;5066810;28;11497;-76
2020/12/26 10:47:21;;;;;;;;;0.50;0.50;;;;;;;;5066327;28;8911;-75
2020/12/26 10:49:46;;;;;;;;;0.00;0.00;;;;;;;;5066891;28;8834;-75
2020/12/26 10:52:12;;;;;;;;;1.00;0.00;;;;;;;;5066481;28;8829;-75
2020/12/26 10:54:39;;;;;;;;;0.00;0.00;;;;;;;;5067037;28;8833;-74
2020/12/26 10:57:05;;;;;;;;;0.00;0.00;;;;;;;;5062700;28;8826;-74
2020/12/26 10:59:31;;;;;;;;;1.00;1.00;;;;;;;;5066053;28;11586;-76
2020/12/26 11:01:57;;;;;;;;;5.75;2.25;;;;;;;;5066641;28;8849;-76
2020/12/26 11:04:23;;;;;;;;;1.00;0.25;;;;;;;;5066154;28;8861;-70
2020/12/26 11:06:49;;;;;;;;;1.00;1.00;;;;;;;;5064822;28;9016;-71
2020/12/26 11:09:15;;;;;;;;;1.00;1.00;;;;;;;;5065018;28;11510;-76
2020/12/26 11:11:46;;;;;;;;;0.75;0.75;;;;;;;;5063297;28;11572;-76
2020/12/26 11:14:12;;;;;;;;;1.75;1.00;;;;;;;;5064635;28;11508;-72
2020/12/26 11:16:38;;;;;;;;;1.00;1.00;;;;;;;;5064573;28;11512;-71
2020/12/26 11:19:04;;;;;;;;;0.00;0.00;;;;;;;;5058934;28;11524;-72
2020/12/26 11:21:30;;;;;;;;;0.00;0.00;;;;;;;;5063481;28;8838;-74
2020/12/26 11:23:56;;;;;;;;;0.25;0.25;;;;;;;;5055510;28;8866;-72
2020/12/26 11:26:22;;;;;;;;;0.25;0.25;;;;;;;;5062164;28;8822;-72
2020/12/26 11:28:49;;;;;;;;;1.00;1.00;;;;;;;;5064667;28;8888;-72
2020/12/26 11:31:20;;;;;;;;;1.50;1.50;;;;;;;;5064216;28;8845;-71
2020/12/26 11:33:46;;;;;;;;;0.00;0.00;;;;;;;;5064016;28;11533;-72
2020/12/26 11:36:17;;;;;;;;;3.00;1.00;;;;;;;;5063261;28;11504;-70
2020/12/26 11:38:43;;;;;;;;;1.00;1.00;;;;;;;;5064409;28;8853;-70
2020/12/26 11:41:09;;;;;;;;;0.00;0.00;;;;;;;;5063224;28;11604;-71
2020/12/26 11:43:35;;;;;;;;;1.00;1.00;;;;;;;;5060276;28;8849;-71
2020/12/26 11:46:04;;;;;;;;;0.00;0.00;;;;;;;;5060426;28;8968;-70
2020/12/26 11:48:30;;;;;;;;;1.75;0.00;;;;;;;;5051813;28;8853;-70
2020/12/26 11:50:57;;;;;;;;;1.00;1.00;;;;;;;;5050851;28;11540;-70
2020/12/26 11:53:23;;;;;;;;;2.00;1.00;;;;;;;;5049949;28;8834;-70
2020/12/26 11:55:49;;;;;;;;;1.00;1.00;;;;;;;;5050825;28;11563;-70
2020/12/26 11:58:15;;;;;;;;;0.00;0.00;;;;;;;;5050519;28;9554;-70
2020/12/26 12:00:41;;;;;;;;;1.25;0.00;;;;;;;;5048701;28;9687;-70
2020/12/26 12:03:08;;;;;;;;;2.00;0.00;;;;;;;;5050328;28;8875;-71
2020/12/26 12:05:34;;;;;;;;;1.00;1.00;;;;;;;;5046958;28;8919;-71
2020/12/26 12:08:00;;;;;;;;;1.25;1.00;;;;;;;;5050645;28;11494;-70
2020/12/26 12:10:26;;;;;;;;;3.75;2.00;;;;;;;;5049943;28;8882;-70
2020/12/26 12:12:52;;;;;;;;;0.75;0.75;;;;;;;;5050684;28;8853;-70
2020/12/26 12:15:18;;;;;;;;;0.00;0.00;;;;;;;;5049546;28;8904;-70
2020/12/26 12:17:45;;;;;;;;;0.00;0.00;;;;;;;;5051093;28;11499;-72
2020/12/26 12:20:11;;;;;;;;;2.00;1.00;;;;;;;;5051299;28;8898;-71
2020/12/26 12:22:37;;;;;;;;;2.00;0.75;;;;;;;;5051580;28;11499;-73
2020/12/26 12:25:03;;;;;;;;;0.75;0.75;;;;;;;;5047606;28;12406;-72
2020/12/26 12:27:29;;;;;;;;;3.00;1.00;;;;;;;;5051135;28;8834;-71
2020/12/26 12:29:55;;;;;;;;;0.25;0.00;;;;;;;;5047515;28;11539;-68
2020/12/26 12:32:21;;;;;;;;;0.00;0.00;;;;;;;;5049897;28;8853;-70
2020/12/26 12:34:47;;;;;;;;;1.00;1.00;;;;;;;;5050249;28;8942;-68
2020/12/26 12:37:14;;;;;;;;;0.00;0.00;;;;;;;;5048978;28;8863;-68
2020/12/26 12:39:40;;;;;;;;;0.00;0.00;;;;;;;;5049885;28;8853;-69
2020/12/26 12:42:07;;;;;;;;;0.00;0.00;;;;;;;;5049699;28;11514;-68
2020/12/26 12:44:33;;;;;;;;;0.00;0.00;;;;;;;;5045622;28;11512;-69
2020/12/26 12:46:59;;;;;;;;;0.00;0.00;;;;;;;;5049917;28;11586;-69
2020/12/26 12:49:25;;;;;;;;;0.00;0.00;;;;;;;;5049155;28;11633;-69
2020/12/26 12:51:51;;;;;;;;;0.50;0.50;;;;;;;;5049757;28;11527;-69
2020/12/26 12:54:18;;;;;;;;;0.00;0.00;;;;;;;;5049053;28;11655;-68
2020/12/26 12:56:44;;;;;;;;;2.00;0.00;;;;;;;;5049645;28;8972;-70
2020/12/26 12:59:10;;;;;;;;;0.00;0.00;;;;;;;;5048024;28;11574;-69
2020/12/26 13:01:36;;;;;;;;;0.25;0.00;;;;;;;;5050293;28;11488;-68
2020/12/26 13:04:02;;;;;;;;;0.75;0.00;;;;;;;;5045451;28;11603;-68
2020/12/26 13:06:28;;;;;;;;;0.75;0.00;;;;;;;;5049243;28;8838;-69
2020/12/26 13:08:54;;;;;;;;;0.00;0.00;;;;;;;;5049379;28;11504;-69
2020/12/26 13:11:21;;;;;;;;;0.00;0.00;;;;;;;;5048478;28;8849;-69
2020/12/26 13:13:47;;;;;;;;;0.00;0.00;;;;;;;;5049422;28;11586;-68
2020/12/26 13:16:19;;;;;;;;;0.75;0.00;;;;;;;;5048143;28;11497;-69
2020/12/26 13:18:45;;;;;;;;;0.00;0.00;;;;;;;;5049343;28;8860;-68
2020/12/26 13:21:15;;;;;;;;;0.00;0.00;;;;;;;;5048225;28;11514;-68
2020/12/26 13:23:41;;;;;;;;;0.00;0.00;;;;;;;;5049228;28;8880;-68
2020/12/26 13:26:07;;;;;;;;;0.00;0.00;;;;;;;;5048191;28;11631;-68
2020/12/26 13:28:34;;;;;;;;;1.00;1.00;;;;;;;;5045283;28;8849;-68
2020/12/26 13:31:00;;;;;;;;;0.00;0.00;;;;;;;;5048968;28;11493;-68
2020/12/26 13:33:26;;;;;;;;;1.00;0.00;;;;;;;;5048041;28;11590;-68
2020/12/26 13:35:52;;;;;;;;;1.75;0.00;;;;;;;;5048730;28;8837;-68
2020/12/26 13:38:18;;;;;;;;;0.00;0.00;;;;;;;;5048550;28;8857;-68
2020/12/26 13:40:44;;;;;;;;;0.50;0.50;;;;;;;;5045648;28;8938;-68
2020/12/26 13:43:10;;;;;;;;;1.00;1.00;;;;;;;;5044429;28;8882;-68
2020/12/26 13:45:37;;;;;;;;;1.33;1.00;;;;;;;;5042520;28;8848;-69
2020/12/26 13:48:03;;;;;;;;;1.00;1.00;;;;;;;;5039762;28;10778;-69
2020/12/26 13:50:29;;;;;;;;;0.00;0.00;;;;;;;;5033352;28;12232;-68
2020/12/26 13:52:55;;;;;;;;;0.00;0.00;;;;;;;;5056843;28;8842;-68
2020/12/26 13:55:20;;;;;;;;;1.00;1.00;;;;;;;;5056544;28;8868;-68
2020/12/26 13:57:46;;;;;;;;;1.00;1.00;;;;;;;;5050296;28;8850;-68
2020/12/26 14:00:12;;;;;;;;;1.00;0.00;;;;;;;;5058997;28;8843;-68
2020/12/26 14:02:39;;;;;;;;;1.00;0.00;;;;;;;;5057321;28;8838;-68
2020/12/26 14:05:05;;;;;;;;;0.00;0.00;;;;;;;;5061077;28;8835;-69
2020/12/26 14:07:35;;;;;;;;;0.00;0.00;;;;;;;;5056203;28;11623;-69
2020/12/26 14:10:01;;;;;;;;;0.00;0.00;;;;;;;;5056645;28;11529;-68
2020/12/26 14:12:27;;;;;;;;;2.00;0.50;;;;;;;;5058749;28;11510;-69
2020/12/26 14:14:53;;;;;;;;;0.00;0.00;;;;;;;;5057778;28;9544;-68
2020/12/26 14:17:19;;;;;;;;;1.50;0.00;;;;;;;;5057945;28;8867;-69
2020/12/26 14:19:45;;;;;;;;;0.00;0.00;;;;;;;;5058295;28;8859;-69
2020/12/26 14:22:11;;;;;;;;;1.00;0.00;;;;;;;;5012426;28;11183;-69
2020/12/26 14:24:39;;;;;;;;;0.00;0.00;;;;;;;;5033391;28;11510;-68
2020/12/26 14:27:06;;;;;;;;;0.75;0.75;;;;;;;;5039353;28;8861;-68
2020/12/26 14:29:32;;;;;;;;;0.00;0.00;;;;;;;;5040350;28;11507;-68
2020/12/26 14:31:58;;;;;;;;;0.00;0.00;;;;;;;;5038776;28;11598;-69
2020/12/26 14:34:24;;;;;;;;;1.50;0.00;;;;;;;;5038427;28;8875;-66
2020/12/26 14:36:52;;;;;;;;;1.00;1.00;;;;;;;;5037204;28;9068;-67
2020/12/26 14:39:18;;;;;;;;;0.00;0.00;;;;;;;;5038488;28;9761;-66
2020/12/26 14:41:46;;;;;;;;;0.50;0.50;;;;;;;;5036202;28;11484;-68
2020/12/26 14:44:12;;;;;;;;;0.50;0.50;;;;;;;;5023761;28;10476;-70
2020/12/26 14:46:38;;;;;;;;;2.00;1.00;;;;;;;;5059500;28;11481;-70
2020/12/26 14:49:04;;;;;;;;;0.00;0.00;;;;;;;;5058208;28;8855;-71
2020/12/26 14:51:30;;;;;;;;;1.00;1.00;;;;;;;;5056109;28;8849;-70
2020/12/26 14:53:57;;;;;;;;;1.00;0.00;;;;;;;;5061099;28;9648;-71
2020/12/26 14:56:23;;;;;;;;;2.00;0.00;;;;;;;;5058897;28;8858;-71
2020/12/26 14:58:49;;;;;;;;;0.00;0.00;;;;;;;;5059647;28;11496;-71
2020/12/26 15:01:15;;;;;;;;;0.00;0.00;;;;;;;;5059574;28;11491;-71
2020/12/26 15:03:43;;;;;;;;;0.00;0.00;;;;;;;;5058614;28;8863;-71
2020/12/26 15:06:09;;;;;;;;;0.25;0.25;;;;;;;;5060664;28;8853;-71
2020/12/26 15:08:35;;;;;;;;;0.00;0.00;;;;;;;;5057944;28;11666;-70
2020/12/26 15:11:04;;;;;;;;;0.00;0.00;;;;;;;;5061279;28;9535;-70
2020/12/26 15:13:30;;;;;;;;;0.25;0.25;;;;;;;;5057600;28;8865;-71
2020/12/26 15:15:56;;;;;;;;;1.00;0.00;;;;;;;;5060301;28;11504;-71
2020/12/26 15:18:22;;;;;;;;;2.75;0.50;;;;;;;;5058624;28;8889;-70
2020/12/26 15:20:48;;;;;;;;;0.00;0.00;;;;;;;;5059414;28;9557;-71
2020/12/26 15:23:14;;;;;;;;;0.00;0.00;;;;;;;;5061586;28;8865;-70
2020/12/26 15:25:39;;;;;;;;;0.75;0.75;;;;;;;;5061801;28;8853;-70
2020/12/26 15:28:06;;;;;;;;;0.25;0.25;;;;;;;;5064901;28;8835;-70
2020/12/26 15:30:32;;;;;;;;;0.00;0.00;;;;;;;;5061479;28;8865;-71
2020/12/26 15:32:58;;;;;;;;;0.00;0.00;;;;;;;;5061225;28;11655;-69
2020/12/26 15:35:24;;;;;;;;;0.50;0.50;;;;;;;;5064532;28;8838;-69
2020/12/26 15:37:50;;;;;;;;;5.00;1.00;;;;;;;;5061631;28;8841;-71
2020/12/26 15:40:16;;;;;;;;;1.00;1.00;;;;;;;;5062324;28;9583;-71
2020/12/26 15:42:42;;;;;;;;;0.75;0.50;;;;;;;;5063689;28;8855;-71
2020/12/26 15:45:09;;;;;;;;;0.50;0.50;;;;;;;;5060358;28;8865;-71
2020/12/26 15:47:35;;;;;;;;;0.75;0.75;;;;;;;;5063184;28;8843;-71
2020/12/26 15:50:06;;;;;;;;;0.50;0.50;;;;;;;;5062695;28;11529;-72
2020/12/26 15:52:31;;;;;;;;;0.50;0.00;;;;;;;;5063438;28;8861;-72
2020/12/26 15:54:57;;;;;;;;;0.00;0.00;;;;;;;;5062151;28;11606;-72
2020/12/26 15:57:23;;;;;;;;;0.75;0.00;;;;;;;;5064057;28;8957;-73
2020/12/26 15:59:49;;;;;;;;;2.00;1.00;;;;;;;;5059271;28;8869;-72
2020/12/26 16:02:16;;;;;;;;;0.00;0.00;;;;;;;;5056295;28;8845;-72
2020/12/26 16:04:42;;;;;;;;;2.00;0.00;;;;;;;;5060076;28;8842;-72
2020/12/26 16:07:08;;;;;;;;;0.75;0.75;;;;;;;;5061546;28;12256;-72
2020/12/26 16:09:34;;;;;;;;;0.25;0.00;;;;;;;;5061572;28;8835;-71
2020/12/26 16:12:00;;;;;;;;;0.00;0.00;;;;;;;;5061459;28;11522;-72
2020/12/26 16:14:26;;;;;;;;;4.33;1.00;;;;;;;;5055997;28;8884;-71
2020/12/26 16:16:52;;;;;;;;;1.00;1.00;;;;;;;;5061783;28;8854;-76
2020/12/26 16:19:19;;;;;;;;;3.00;1.00;;;;;;;;5061197;28;8847;-70
2020/12/26 16:21:45;;;;;;;;;1.50;1.50;;;;;;;;5061357;28;8833;-71
2020/12/26 16:24:11;;;;;;;;;0.25;0.00;;;;;;;;5062932;28;11679;-73
2020/12/26 16:26:37;;;;;;;;;5.00;1.00;;;;;;;;5056470;28;8826;-68
2020/12/26 16:29:03;;;;;;;;;1.00;1.00;;;;;;;;5063439;28;8843;-67
2020/12/26 16:31:32;;;;;;;;;0.00;0.00;;;;;;;;5059975;28;8833;-69
2020/12/26 16:33:58;;;;;;;;;0.00;0.00;;;;;;;;5062765;28;11556;-72
2020/12/26 16:36:25;;;;;;;;;0.33;0.33;;;;;;;;5059888;28;11537;-69
2020/12/26 16:38:51;;;;;;;;;1.67;0.33;;;;;;;;5061933;28;9008;-69
2020/12/26 16:41:17;;;;;;;;;0.00;0.00;;;;;;;;5061330;28;11552;-69
2020/12/26 16:43:44;;;;;;;;;5.67;2.00;;;;;;;;5060490;28;11510;-69
2020/12/26 16:46:10;;;;;;;;;1.67;1.00;;;;;;;;5062330;28;11491;-75
2020/12/26 16:48:36;;;;;;;;;1.00;1.00;;;;;;;;5059543;28;11584;-70
2020/12/26 16:51:02;;;;;;;;;1.00;0.00;;;;;;;;5063335;28;8847;-72
2020/12/26 16:53:29;;;;;;;;;1.00;0.00;;;;;;;;5060169;28;8842;-71
2020/12/26 16:55:55;;;;;;;;;0.67;0.00;;;;;;;;5062372;28;8845;-71
2020/12/26 16:58:22;;;;;;;;;1.00;1.00;;;;;;;;5060894;28;11505;-72
2020/12/26 17:00:48;;;;;;;;;1.00;1.00;;;;;;;;5061222;28;8872;-70
2020/12/26 17:03:14;;;;;;;;;2.33;0.00;;;;;;;;5061535;28;11472;-72
2020/12/26 17:05:40;;;;;;;;;0.67;0.67;;;;;;;;5059985;28;9655;-73
2020/12/26 17:08:06;;;;;;;;;1.00;1.00;;;;;;;;5062339;28;8819;-72
2020/12/26 17:10:33;;;;;;;;;0.00;0.00;;;;;;;;5059622;28;8845;-69
2020/12/26 17:12:59;;;;;;;;;1.00;1.00;;;;;;;;5062638;28;8851;-68
2020/12/26 17:15:25;;;;;;;;;2.00;1.33;;;;;;;;5060099;28;11502;-68
2020/12/26 17:17:51;;;;;;;;;0.00;0.00;;;;;;;;5060633;28;9545;-68
2020/12/26 17:20:17;;;;;;;;;1.00;1.00;;;;;;;;5061214;28;11527;-70
2020/12/26 17:22:43;;;;;;;;;1.00;1.00;;;;;;;;5059763;28;8872;-70
2020/12/26 17:25:09;;;;;;;;;4.00;1.00;;;;;;;;5062000;28;8886;-69
2020/12/26 17:27:36;;;;;;;;;0.67;0.67;;;;;;;;5058513;28;9557;-69
2020/12/26 17:30:03;;;;;;;;;1.00;1.00;;;;;;;;5059300;28;8838;-68
2020/12/26 17:32:28;;;;;;;;;1.00;1.00;;;;;;;;5061857;28;11512;-68
2020/12/26 17:34:54;;;;;;;;;0.00;0.00;;;;;;;;5059916;28;8865;-69
2020/12/26 17:37:20;;;;;;;;;2.00;0.00;;;;;;;;5060060;28;8849;-69
2020/12/26 17:39:46;;;;;;;;;1.00;1.00;;;;;;;;5060764;28;8839;-68
2020/12/26 17:42:12;;;;;;;;;1.00;1.00;;;;;;;;5063144;28;8862;-68
2020/12/26 17:44:39;;;;;;;;;1.33;0.33;;;;;;;;5058679;28;8842;-70
2020/12/26 17:47:05;;;;;;;;;0.00;0.00;;;;;;;;5061830;28;8839;-68
2020/12/26 17:49:31;;;;;;;;;1.67;1.00;;;;;;;;5058326;28;11585;-68
2020/12/26 17:51:58;;;;;;;;;1.00;0.00;;;;;;;;5061058;28;8863;-70
2020/12/26 17:54:24;;;;;;;;;0.00;0.00;;;;;;;;5059398;28;8855;-68
2020/12/26 17:56:50;;;;;;;;;2.00;2.00;;;;;;;;5059737;28;11509;-68
2020/12/26 17:59:16;;;;;;;;;1.00;1.00;;;;;;;;5060309;28;8827;-70
2020/12/26 18:01:43;;;;;;;;;0.67;0.67;;;;;;;;5059224;28;8853;-69
2020/12/26 18:04:09;;;;;;;;;1.00;1.00;;;;;;;;5061519;28;8830;-69
2020/12/26 18:06:35;;;;;;;;;5.00;1.00;;;;;;;;5058001;28;8856;-69
2020/12/26 18:09:00;;;;;;;;;1.00;1.00;;;;;;;;5061811;28;8847;-78
2020/12/26 18:11:27;;;;;;;;;0.33;0.33;;;;;;;;5058878;28;9686;-74
2020/12/26 18:13:53;;;;;;;;;1.67;0.67;;;;;;;;5060600;28;8868;-70
2020/12/26 18:16:19;;;;;;;;;1.33;1.33;;;;;;;;5059621;28;11474;-72
2020/12/26 18:18:46;;;;;;;;;2.00;0.00;;;;;;;;5057588;28;9070;-70
2020/12/26 18:21:12;;;;;;;;;0.67;0.67;;;;;;;;5059583;28;8835;-71
2020/12/26 18:23:38;;;;;;;;;0.00;0.00;;;;;;;;5056952;28;8841;-71
2020/12/26 18:26:04;;;;;;;;;0.33;0.00;;;;;;;;5060459;28;11572;-70
2020/12/26 18:28:30;;;;;;;;;2.00;1.00;;;;;;;;5056920;28;8848;-70
2020/12/26 18:30:57;;;;;;;;;1.00;1.00;;;;;;;;5058888;28;8851;-70
2020/12/26 18:33:23;;;;;;;;;1.67;1.00;;;;;;;;5058077;28;8846;-71
2020/12/26 18:35:50;;;;;;;;;2.33;1.00;;;;;;;;5057981;28;8872;-70
2020/12/26 18:38:16;;;;;;;;;1.00;1.00;;;;;;;;5056520;28;8850;-69
2020/12/26 18:40:42;;;;;;;;;2.00;1.00;;;;;;;;5057036;28;9589;-69
2020/12/26 18:43:08;;;;;;;;;1.00;1.00;;;;;;;;5059997;28;8867;-69
2020/12/26 18:45:34;;;;;;;;;0.00;0.00;;;;;;;;5055917;28;9577;-68
2020/12/26 18:48:00;;;;;;;;;3.00;2.00;;;;;;;;5056594;28;8847;-69
2020/12/26 18:50:26;;;;;;;;;0.00;0.00;;;;;;;;5057154;28;8849;-69
2020/12/26 18:52:53;;;;;;;;;1.00;1.00;;;;;;;;5059863;28;8850;-68
2020/12/26 18:55:19;;;;;;;;;1.00;1.00;;;;;;;;5058641;28;8848;-70
2020/12/26 18:57:45;;;;;;;;;1.67;1.00;;;;;;;;5059983;28;8846;-67
2020/12/26 19:00:11;;;;;;;;;1.00;1.00;;;;;;;;5063147;28;8939;-71
2020/12/26 19:02:37;;;;;;;;;3.00;2.00;;;;;;;;5060128;28;8934;-69
2020/12/26 19:05:03;;;;;;;;;1.00;1.00;;;;;;;;5064116;28;8847;-69
2020/12/26 19:07:30;;;;;;;;;0.00;0.00;;;;;;;;5060905;28;8872;-71
2020/12/26 19:09:58;;;;;;;;;2.00;1.00;;;;;;;;5061638;28;11600;-71
2020/12/26 19:12:24;;;;;;;;;0.00;0.00;;;;;;;;5059851;28;9623;-68
2020/12/26 19:14:50;;;;;;;;;5.67;1.33;;;;;;;;5061011;28;8959;-69
2020/12/26 19:17:19;;;;;;;;;0.00;0.00;;;;;;;;5059547;28;8847;-69
2020/12/26 19:19:45;;;;;;;;;2.33;1.00;;;;;;;;5060564;28;11502;-68
2020/12/26 19:22:11;;;;;;;;;1.00;0.00;;;;;;;;5062805;28;8858;-69
2020/12/26 19:24:37;;;;;;;;;1.67;0.00;;;;;;;;5059251;28;8845;-68
2020/12/26 19:27:05;;;;;;;;;1.00;1.00;;;;;;;;5063630;28;8845;-71
2020/12/26 19:29:31;;;;;;;;;1.00;1.00;;;;;;;;5059384;28;8857;-69
2020/12/26 19:31:58;;;;;;;;;1.67;1.67;;;;;;;;5062738;28;8993;-68
2020/12/26 19:34:24;;;;;;;;;4.00;1.33;;;;;;;;5060539;28;11498;-70